Time;durP1;ratioP1;P1;durP2;ratioP2;P2;SDS_P1;SDS_P2;PMS_P1;PMS_P2;Temp;Humidity;BMP_temperature;BMP_pressure;BME280_temperature;BME280_humidity;BME280_pressure;Samples;Min_cycle;Max_cycle;Signal;HPM_P1;HPM_P2
2021/08/18 08:24:27;;;;;;;25.30;16.95;;;15.70;99.90;;;;;;5070748;28;21066;-66
2021/08/18 08:26:53;;;;;;;35.88;18.70;;;15.40;99.90;;;;;;5070729;28;20283;-67
2021/08/18 08:29:19;;;;;;;28.70;17.45;;;15.40;99.90;;;;;;5070599;28;20211;-67
2021/08/18 08:31:44;;;;;;;26.40;17.45;;;15.50;99.90;;;;;;5069412;28;20255;-67
2021/08/18 08:34:10;;;;;;;28.98;15.90;;;15.50;99.90;;;;;;5070584;28;20172;-67
2021/08/18 08:36:36;;;;;;;24.30;16.92;;;15.50;99.90;;;;;;5070670;28;20176;-67
2021/08/18 08:39:02;;;;;;;23.58;15.27;;;15.60;99.90;;;;;;5070472;28;20252;-67
2021/08/18 08:41:28;;;;;;;22.08;15.73;;;15.70;99.90;;;;;;5070512;28;20532;-67
2021/08/18 08:43:54;;;;;;;29.08;16.42;;;15.70;99.90;;;;;;5070520;28;20192;-67
2021/08/18 08:46:20;;;;;;;21.98;15.73;;;15.70;99.90;;;;;;5070377;28;20664;-67
2021/08/18 08:48:46;;;;;;;19.65;15.35;;;15.70;99.90;;;;;;5070285;28;20164;-67
2021/08/18 08:51:12;;;;;;;23.38;15.52;;;15.70;99.90;;;;;;5070254;28;20241;-67
2021/08/18 08:53:38;;;;;;;20.40;14.98;;;15.60;99.90;;;;;;5070147;28;20211;-67
2021/08/18 08:56:07;;;;;;;22.23;15.73;;;15.60;99.90;;;;;;5070169;28;20672;-67
2021/08/18 08:58:32;;;;;;;21.88;16.00;;;15.50;99.90;;;;;;5070079;28;20172;-67
2021/08/18 09:00:58;;;;;;;23.35;16.98;;;15.50;99.90;;;;;;5070015;28;20178;-67
2021/08/18 09:03:24;;;;;;;22.50;15.80;;;15.50;99.90;;;;;;5069910;28;20254;-67
2021/08/18 09:05:51;;;;;;;17.98;13.20;;;15.50;99.90;;;;;;5068641;28;20752;-67
2021/08/18 09:08:19;;;;;;;20.40;15.05;;;15.50;99.90;;;;;;5069820;28;20187;-67
2021/08/18 09:11:11;;;;;;;17.50;14.68;;;15.50;99.90;;;;;;5069878;28;20638;-67
2021/08/18 09:13:53;;;;;;;22.13;14.85;;;15.60;99.90;;;;;;5069760;28;20187;-67
2021/08/18 09:16:29;;;;;;;17.88;14.00;;;15.60;99.90;;;;;;5069721;28;20169;-67
2021/08/18 09:18:55;;;;;;;15.68;13.20;;;15.70;99.90;;;;;;5069665;28;20172;-67
2021/08/18 09:21:39;;;;;;;16.60;12.57;;;15.70;99.90;;;;;;5069611;28;20183;-67
2021/08/18 09:24:17;;;;;;;14.52;12.43;;;15.70;99.90;;;;;;5069410;28;20303;-67
2021/08/18 09:26:55;;;;;;;17.80;14.27;;;15.70;99.90;;;;;;5069486;28;20157;-67
2021/08/18 09:29:29;;;;;;;15.30;12.85;;;15.80;99.90;;;;;;5069305;28;20594;-67
2021/08/18 09:31:56;;;;;;;16.27;13.15;;;15.90;99.90;;;;;;5068177;28;20172;-67
2021/08/18 09:34:21;;;;;;;18.55;13.95;;;15.90;99.90;;;;;;5064240;28;20532;-67
2021/08/18 09:36:47;;;;;;;17.58;12.82;;;15.90;99.90;;;;;;5054865;28;20180;-67
2021/08/18 09:39:21;;;;;;;15.73;12.88;;;16.00;99.90;;;;;;5056050;28;20184;-67
2021/08/18 09:41:47;;;;;;;18.20;13.65;;;16.00;99.90;;;;;;5055964;28;20161;-67
2021/08/18 09:44:13;;;;;;;14.73;13.23;;;16.00;99.90;;;;;;5055923;28;20193;-67
2021/08/18 09:46:39;;;;;;;14.18;12.65;;;16.00;99.90;;;;;;5056029;28;20173;-67
2021/08/18 09:49:10;;;;;;;15.07;13.25;;;16.00;99.90;;;;;;5055903;28;20167;-67
2021/08/18 09:51:37;;;;;;;12.68;11.30;;;16.10;99.90;;;;;;5055878;28;20247;-67
2021/08/18 09:54:37;;;;;;;13.40;12.02;;;16.20;99.90;;;;;;5055776;28;20180;-67
2021/08/18 09:57:07;;;;;;;13.77;11.65;;;16.20;99.90;;;;;;5055809;28;20165;-67
2021/08/18 09:59:37;;;;;;;13.13;11.10;;;16.30;99.90;;;;;;5055726;28;20691;-67
2021/08/18 10:02:04;;;;;;;11.40;10.32;;;16.30;99.90;;;;;;5054360;28;20267;-67
2021/08/18 10:04:30;;;;;;;10.18;9.27;;;16.40;99.90;;;;;;5055537;28;20219;-67
2021/08/18 10:06:56;;;;;;;12.95;11.45;;;16.50;99.90;;;;;;5055562;28;20669;-67
2021/08/18 10:09:22;;;;;;;12.38;9.93;;;16.50;99.90;;;;;;5055437;28;20165;-67
2021/08/18 10:11:47;;;;;;;9.60;8.80;;;16.50;99.90;;;;;;5054186;28;20169;-67
2021/08/18 10:14:13;;;;;;;10.77;9.68;;;16.50;99.90;;;;;;5055369;28;20725;-67
2021/08/18 10:16:39;;;;;;;9.45;8.63;;;16.40;99.90;;;;;;5055430;28;20173;-67
2021/08/18 10:19:06;;;;;;;9.30;8.43;;;16.20;99.90;;;;;;5055276;28;20248;-67
2021/08/18 10:21:33;;;;;;;8.88;7.97;;;16.20;99.90;;;;;;5055316;28;20169;-67
2021/08/18 10:24:05;;;;;;;9.07;8.30;;;16.30;99.90;;;;;;5054993;28;20220;-67
2021/08/18 10:26:34;;;;;;;8.38;7.68;;;16.30;99.90;;;;;;5055195;28;20169;-67
2021/08/18 10:29:06;;;;;;;7.72;7.13;;;16.40;99.90;;;;;;5055065;28;20228;-67
2021/08/18 10:31:41;;;;;;;7.55;7.05;;;16.50;99.90;;;;;;5055040;28;20197;-67
2021/08/18 10:34:07;;;;;;;7.63;7.03;;;16.50;99.90;;;;;;5055061;28;20215;-67
2021/08/18 10:36:41;;;;;;;7.75;7.07;;;16.60;99.90;;;;;;5054841;28;20204;-67
2021/08/18 10:39:22;;;;;;;7.20;6.50;;;16.70;99.90;;;;;;5054964;28;20180;-67
2021/08/18 10:42:03;;;;;;;7.72;7.10;;;16.70;99.90;;;;;;5054873;28;20188;-67
2021/08/18 10:44:35;;;;;;;7.82;7.22;;;16.70;99.90;;;;;;5054946;28;20215;-67
2021/08/18 10:47:32;;;;;;;7.63;7.13;;;16.70;99.90;;;;;;5053817;28;20172;-67
2021/08/18 10:50:01;;;;;;;8.57;7.78;;;16.80;99.90;;;;;;5052927;28;20177;-67
2021/08/18 10:52:29;;;;;;;7.55;6.93;;;17.00;99.90;;;;;;5054680;28;20197;-67
2021/08/18 10:55:01;;;;;;;8.45;6.50;;;17.10;99.90;;;;;;5053374;28;20206;-67
2021/08/18 10:57:48;;;;;;;6.55;6.03;;;17.20;99.90;;;;;;5053423;28;20173;-67
2021/08/18 11:00:32;;;;;;;6.65;6.25;;;17.10;99.90;;;;;;5054516;28;20169;-67
2021/08/18 11:03:03;;;;;;;6.32;5.80;;;17.00;99.90;;;;;;5054392;28;20546;-67
2021/08/18 11:05:38;;;;;;;5.78;5.38;;;16.90;99.90;;;;;;5054486;28;20165;-67
2021/08/18 11:08:11;;;;;;;6.22;5.70;;;16.80;99.90;;;;;;5054398;28;20165;-67
2021/08/18 11:10:38;;;;;;;6.20;5.80;;;16.80;99.90;;;;;;5054344;28;20168;-67
2021/08/18 11:13:06;;;;;;;6.45;6.00;;;16.80;99.90;;;;;;5053054;28;20177;-67
2021/08/18 11:15:31;;;;;;;5.93;5.43;;;17.00;99.90;;;;;;5054895;28;20171;-67
2021/08/18 11:17:58;;;;;;;6.53;6.07;;;17.10;99.90;;;;;;5054914;28;20168;-67
2021/08/18 11:20:28;;;;;;;5.15;4.85;;;17.20;99.90;;;;;;5054400;28;20219;-67
2021/08/18 11:23:03;;;;;;;5.75;5.32;;;17.40;99.90;;;;;;5054045;28;20212;-67
2021/08/18 11:25:29;;;;;;;5.07;4.68;;;17.50;99.90;;;;;;5054098;28;20176;-67
2021/08/18 11:27:56;;;;;;;8.30;4.78;;;17.50;99.90;;;;;;5053952;28;20220;-67
2021/08/18 11:30:25;;;;;;;5.10;4.70;;;17.60;99.90;;;;;;5053872;28;20204;-67
2021/08/18 11:32:51;;;;;;;5.00;4.68;;;17.60;99.90;;;;;;5053975;28;20248;-67
2021/08/18 11:35:36;;;;;;;4.32;4.13;;;17.60;99.90;;;;;;5053934;28;20179;-67
2021/08/18 11:38:07;;;;;;;4.10;3.90;;;17.80;99.90;;;;;;5053860;28;20161;-67
2021/08/18 11:40:33;;;;;;;4.22;3.88;;;17.90;99.90;;;;;;5053841;28;20173;-67
2021/08/18 11:42:59;;;;;;;4.38;4.07;;;18.10;99.90;;;;;;5053760;28;20564;-67
2021/08/18 11:45:26;;;;;;;3.20;3.10;;;18.10;99.90;;;;;;5054106;28;20524;-67
2021/08/18 11:48:10;;;;;;;4.28;3.90;;;18.20;99.90;;;;;;5053682;28;20211;-67
2021/08/18 11:50:49;;;;;;;4.40;4.00;;;18.10;99.90;;;;;;5053713;28;20165;-67
2021/08/18 11:53:17;;;;;;;3.55;3.35;;;18.00;99.90;;;;;;5053738;28;20247;-67
2021/08/18 11:55:43;;;;;;;5.18;3.30;;;17.90;99.90;;;;;;5053583;28;20173;-67
2021/08/18 11:58:09;;;;;;;3.80;3.60;;;17.90;99.90;;;;;;5053330;28;20176;-67
2021/08/18 12:00:35;;;;;;;4.78;3.60;;;17.80;99.90;;;;;;5053484;28;20649;-67
2021/08/18 12:03:02;;;;;;;4.20;3.28;;;17.70;99.90;;;;;;5053310;28;20271;-67
2021/08/18 12:05:32;;;;;;;14.20;3.80;;;17.60;99.90;;;;;;5053400;28;20173;-67
2021/08/18 12:08:06;;;;;;;4.28;3.97;;;17.60;99.90;;;;;;5053436;28;20634;-67
2021/08/18 12:10:38;;;;;;;4.78;4.38;;;17.40;99.90;;;;;;5053369;28;20172;-67
2021/08/18 12:13:11;;;;;;;5.68;5.18;;;17.10;99.90;;;;;;5053333;28;20665;-67
2021/08/18 12:15:42;;;;;;;5.38;4.88;;;17.00;99.90;;;;;;5053360;28;20634;-67
2021/08/18 12:18:30;;;;;;;5.97;5.57;;;16.80;99.90;;;;;;5053297;28;20165;-67
2021/08/18 12:21:18;;;;;;;6.75;6.15;;;16.60;99.90;;;;;;5053257;28;20223;-67
2021/08/18 12:23:46;;;;;;;6.93;6.43;;;16.50;99.90;;;;;;5053021;28;20575;-67
2021/08/18 12:26:30;;;;;;;7.45;6.78;;;16.50;99.90;;;;;;5053129;28;20165;-67
2021/08/18 12:28:58;;;;;;;8.40;7.65;;;16.40;99.90;;;;;;5051828;28;20200;-67
2021/08/18 12:31:24;;;;;;;9.23;8.32;;;16.50;99.90;;;;;;5053331;28;20176;-67
2021/08/18 12:34:09;;;;;;;9.50;8.57;;;16.40;99.90;;;;;;5053163;28;20169;-67
2021/08/18 12:36:35;;;;;;;10.88;9.10;;;16.30;99.90;;;;;;5053070;28;20184;-67
2021/08/18 12:39:02;;;;;;;13.27;10.13;;;16.30;99.90;;;;;;5053103;28;20650;-67
2021/08/18 12:41:29;;;;;;;23.02;10.63;;;16.40;99.90;;;;;;5053084;28;20201;-67
2021/08/18 12:44:07;;;;;;;16.52;10.32;;;16.40;99.90;;;;;;5053064;28;20196;-67
2021/08/18 12:46:34;;;;;;;11.95;10.65;;;16.60;99.90;;;;;;5052993;28;20174;-67
2021/08/18 12:49:29;;;;;;;17.17;12.05;;;16.70;99.90;;;;;;5052923;28;20222;-67
2021/08/18 12:51:55;;;;;;;13.38;10.32;;;17.00;99.90;;;;;;5052950;28;20189;-67
2021/08/18 12:54:21;;;;;;;11.93;10.73;;;17.20;99.90;;;;;;5052934;28;20173;-67
2021/08/18 12:56:47;;;;;;;11.93;10.38;;;17.30;99.90;;;;;;5053002;28;20230;-67
2021/08/18 12:59:13;;;;;;;14.25;10.82;;;17.40;99.90;;;;;;5052911;28;20248;-67
2021/08/18 13:01:38;;;;;;;11.73;10.60;;;17.50;99.90;;;;;;5052806;28;20177;-67
2021/08/18 13:04:04;;;;;;;11.93;10.55;;;17.50;99.90;;;;;;5052788;28;20200;-67
2021/08/18 13:06:30;;;;;;;11.73;10.63;;;17.40;99.90;;;;;;5052844;28;20192;-67
2021/08/18 13:08:55;;;;;;;14.75;11.30;;;17.30;99.90;;;;;;5052853;28;20527;-67
2021/08/18 13:11:21;;;;;;;12.07;10.75;;;17.20;99.90;;;;;;5056589;28;20165;-67
2021/08/18 13:13:46;;;;;;;14.30;11.23;;;17.10;99.90;;;;;;5056622;28;20165;-67
2021/08/18 13:16:12;;;;;;;14.88;11.18;;;17.00;99.90;;;;;;5056498;28;20247;-67
2021/08/18 13:18:38;;;;;;;12.00;10.80;;;16.90;99.90;;;;;;5055240;28;20527;-67
2021/08/18 13:21:03;;;;;;;12.60;11.07;;;16.70;99.90;;;;;;5056409;28;20180;-67
2021/08/18 13:23:32;;;;;;;14.00;11.55;;;16.70;99.90;;;;;;5056177;28;20216;-67
2021/08/18 13:26:00;;;;;;;15.38;11.30;;;16.70;99.90;;;;;;5055188;28;20168;-67
2021/08/18 13:28:27;;;;;;;15.88;11.05;;;16.70;99.90;;;;;;5056250;28;20181;-67
2021/08/18 13:30:52;;;;;;;13.00;11.63;;;16.60;99.90;;;;;;5056196;28;20192;-67
2021/08/18 13:33:18;;;;;;;12.45;11.18;;;16.60;99.90;;;;;;5054950;28;20629;-67
2021/08/18 13:35:43;;;;;;;12.63;11.32;;;16.60;99.90;;;;;;5056153;28;20176;-67
2021/08/18 13:38:09;;;;;;;11.48;10.43;;;16.50;99.90;;;;;;5054847;28;20265;-67
2021/08/18 13:55:25;;;;;;;13.70;12.23;;;16.50;99.90;;;;;;5070780;28;21054;-66
2021/08/18 13:57:51;;;;;;;14.43;11.10;;;;;;;;;;5070667;28;20278;-67
2021/08/18 14:00:18;;;;;;;13.68;12.18;;;;;;;;;;5070676;28;20168;-67
2021/08/18 14:02:44;;;;;;;12.55;11.35;;;16.70;99.90;;;;;;5070697;28;20226;-67
2021/08/18 14:05:10;;;;;;;12.52;11.27;;;16.80;99.90;;;;;;5070568;28;20164;-67
2021/08/18 14:07:36;;;;;;;14.13;12.18;;;16.90;99.90;;;;;;5070534;28;20175;-67
2021/08/18 14:10:02;;;;;;;16.45;11.85;;;16.80;99.90;;;;;;5070506;28;20168;-67
2021/08/18 14:12:28;;;;;;;16.52;11.25;;;17.00;99.90;;;;;;5070329;28;20172;-67
2021/08/18 14:14:54;;;;;;;11.98;10.52;;;17.00;99.90;;;;;;5070300;28;20199;-67
2021/08/18 14:17:20;;;;;;;15.38;11.38;;;17.20;99.90;;;;;;5070396;28;20641;-67
2021/08/18 14:19:45;;;;;;;12.15;10.95;;;16.70;99.90;;;;;;5069031;28;20203;-67
2021/08/18 14:22:11;;;;;;;10.95;9.85;;;17.20;99.90;;;;;;5070141;28;20233;-67
2021/08/18 14:24:37;;;;;;;11.60;10.50;;;17.40;99.90;;;;;;5070053;28;20614;-67
2021/08/18 14:27:02;;;;;;;12.60;10.57;;;17.20;99.90;;;;;;5070017;28;20244;-67
2021/08/18 14:29:28;;;;;;;15.52;10.63;;;17.30;99.90;;;;;;5068660;28;20656;-67
2021/08/18 14:31:54;;;;;;;10.75;9.75;;;17.30;99.90;;;;;;5069852;28;20176;-67
2021/08/18 14:34:20;;;;;;;12.65;9.23;;;17.50;99.90;;;;;;5069776;28;20199;-67
2021/08/18 14:36:46;;;;;;;9.45;8.52;;;17.60;99.90;;;;;;5068543;28;20169;-67
2021/08/18 14:39:13;;;;;;;9.20;8.38;;;17.50;99.90;;;;;;5069746;28;20644;-67
2021/08/18 14:41:39;;;;;;;8.63;7.82;;;17.70;99.90;;;;;;5069600;28;20174;-67
2021/08/18 14:44:05;;;;;;;8.98;8.05;;;17.50;99.90;;;;;;5069926;28;20168;-67
2021/08/18 14:46:30;;;;;;;8.27;7.45;;;17.50;99.90;;;;;;5068333;28;20200;-67
2021/08/18 14:48:56;;;;;;;9.18;7.82;;;17.40;99.90;;;;;;5069634;28;20648;-67
2021/08/18 14:51:22;;;;;;;8.90;7.60;;;17.50;99.90;;;;;;5069639;28;20172;-67
2021/08/18 14:53:49;;;;;;;8.70;7.80;;;17.50;99.90;;;;;;5069333;28;20299;-67
2021/08/18 14:56:15;;;;;;;8.07;7.38;;;17.40;99.90;;;;;;5069461;28;20630;-67
2021/08/18 14:58:40;;;;;;;8.95;8.18;;;17.50;99.90;;;;;;5068174;28;20176;-67
2021/08/18 15:01:06;;;;;;;11.35;8.02;;;17.50;99.90;;;;;;5069354;28;20160;-67
2021/08/18 15:03:32;;;;;;;8.45;7.70;;;17.20;99.90;;;;;;5069192;28;20173;-70
2021/08/18 15:05:57;;;;;;;10.43;8.55;;;17.30;99.90;;;;;;5060690;28;20247;-72
2021/08/18 15:08:23;;;;;;;9.70;8.70;;;17.20;99.90;;;;;;5056022;28;20169;-72
2021/08/18 15:10:48;;;;;;;10.55;9.48;;;16.80;99.90;;;;;;5056249;28;20168;-72
2021/08/18 15:13:14;;;;;;;9.80;8.90;;;16.90;99.90;;;;;;5055942;28;20525;-71
2021/08/18 15:15:40;;;;;;;11.05;9.55;;;17.00;99.90;;;;;;5055642;28;20249;-71
2021/08/18 15:18:06;;;;;;;9.85;8.95;;;16.60;99.90;;;;;;5054396;28;20192;-70
2021/08/18 15:20:33;;;;;;;15.60;9.68;;;16.70;99.90;;;;;;5055465;28;20173;-70
2021/08/18 15:22:58;;;;;;;16.05;10.68;;;16.80;99.90;;;;;;5055120;28;20530;-70
2021/08/18 15:25:24;;;;;;;14.95;9.20;;;16.70;99.90;;;;;;5055644;28;20169;-70
2021/08/18 15:27:54;;;;;;;10.77;9.73;;;16.80;99.90;;;;;;5055880;28;20531;-70
2021/08/18 15:30:26;;;;;;;12.48;9.07;;;16.90;99.90;;;;;;5055655;28;20531;-70
2021/08/18 15:32:53;;;;;;;11.65;9.93;;;;;;;;;;5055536;28;20248;-70
2021/08/18 15:35:20;;;;;;;11.27;9.63;;;16.90;99.90;;;;;;5055049;28;20258;-70
2021/08/18 15:37:59;;;;;;;14.38;9.02;;;17.00;99.90;;;;;;5055400;28;20169;-70
2021/08/18 15:40:29;;;;;;;14.98;9.77;;;17.00;99.90;;;;;;5055484;28;20165;-70
2021/08/18 15:42:54;;;;;;;13.70;9.63;;;17.20;99.90;;;;;;5055418;28;20173;-70
2021/08/18 15:45:20;;;;;;;11.43;9.32;;;16.90;99.90;;;;;;5054567;28;20185;-70
2021/08/18 15:47:46;;;;;;;11.95;10.65;;;17.30;99.90;;;;;;5055128;28;20177;-70
2021/08/18 15:50:12;;;;;;;14.48;10.52;;;17.40;99.90;;;;;;5055239;28;20652;-70
2021/08/18 15:52:43;;;;;;;10.20;9.23;;;;;;;;;;5055394;28;20180;-70
2021/08/18 15:55:12;;;;;;;10.82;9.70;;;17.00;99.90;;;;;;5055050;28;20228;-71
2021/08/18 15:57:39;;;;;;;15.93;10.10;;;17.30;99.90;;;;;;5055277;28;20248;-70
2021/08/18 16:00:09;;;;;;;12.38;9.82;;;17.30;99.90;;;;;;5055139;28;20165;-70
2021/08/18 16:02:36;;;;;;;12.82;9.75;;;;;;;;;;5055247;28;20171;-70
2021/08/18 16:05:05;;;;;;;12.52;9.02;;;;;;;;;;5055092;28;20181;-70
2021/08/18 16:07:33;;;;;;;12.63;9.68;;;;;;;;;;5053838;28;20589;-70
2021/08/18 16:10:01;;;;;;;11.27;9.88;;;17.20;99.90;;;;;;5056035;28;20173;-71
2021/08/18 16:12:31;;;;;;;11.77;9.75;;;17.00;99.90;;;;;;5055019;28;20195;-70
2021/08/18 16:14:59;;;;;;;18.23;10.90;;;;;;;;;;5052429;28;20192;-70
2021/08/18 16:17:30;;;;;;;13.55;10.27;;;;;;;;;;5053847;28;20222;-70
2021/08/18 16:19:57;;;;;;;11.65;9.48;;;;;;;;;;5054901;28;20328;-70
